createdAt,value
2022-07-25T00:00:40.538Z,54.25
2022-07-25T00:01:41.180Z,54.23
2022-07-25T00:02:40.849Z,54.46
2022-07-25T00:03:41.006Z,54.25
2022-07-25T00:04:41.273Z,54.06
2022-07-25T00:05:41.437Z,54.33
2022-07-25T00:06:41.621Z,54.46
2022-07-25T00:07:41.795Z,54.55
2022-07-25T00:08:41.966Z,54.65
2022-07-25T00:09:43.106Z,54.55
2022-07-25T00:10:43.299Z,54.35
2022-07-25T00:11:42.456Z,54.25
2022-07-25T00:12:42.601Z,54.35
2022-07-25T00:13:42.771Z,53.96
2022-07-25T00:14:42.960Z,54.35
2022-07-25T00:15:43.703Z,54.35
2022-07-25T00:16:43.266Z,54.35
2022-07-25T00:17:43.470Z,54.35
2022-07-25T00:18:43.626Z,54.95
2022-07-25T00:19:44.617Z,54.46
2022-07-25T00:20:43.977Z,54.46
2022-07-25T00:21:44.154Z,55.35
2022-07-25T00:22:44.632Z,55.08
2022-07-25T00:23:44.496Z,55.35
2022-07-25T00:24:44.623Z,54.78
2022-07-25T00:25:44.747Z,54.46
2022-07-25T00:26:44.892Z,54.68
2022-07-25T00:27:45.043Z,55.47
2022-07-25T00:28:45.212Z,54.78
2022-07-25T00:29:46.126Z,54.68
2022-07-25T00:30:45.566Z,55.77
2022-07-25T00:31:45.682Z,55.47
2022-07-25T00:32:45.883Z,54.48
2022-07-25T00:33:46.052Z,54.38
2022-07-25T00:34:46.178Z,54.58
2022-07-25T00:35:47.157Z,54.38
2022-07-25T00:36:46.536Z,54.48
2022-07-25T00:37:47.645Z,54.48
2022-07-25T00:38:46.902Z,54.78
2022-07-25T00:39:47.055Z,54.68
2022-07-25T00:40:47.212Z,54.58
2022-07-25T00:41:48.453Z,54.48
2022-07-25T00:42:47.659Z,54.38
2022-07-25T00:43:47.822Z,55.18
2022-07-25T00:44:48.638Z,54.68
2022-07-25T00:45:48.628Z,54.68
2022-07-25T00:46:48.350Z,54.68
2022-07-25T00:47:49.141Z,54.48
2022-07-25T00:48:48.724Z,54.48
2022-07-25T00:49:49.628Z,54.48
2022-07-25T00:50:49.038Z,54.58
2022-07-25T00:51:49.173Z,54.48
2022-07-25T00:52:49.301Z,54.68
2022-07-25T00:53:49.555Z,54.58
2022-07-25T00:54:49.693Z,54.58
2022-07-25T00:55:49.822Z,53.88
2022-07-25T00:56:50.070Z,53.78
2022-07-25T00:57:51.131Z,54.16
2022-07-25T00:58:50.353Z,54.28
2022-07-25T00:59:50.507Z,54.48
2022-07-25T01:00:50.611Z,55.18
2022-07-25T01:01:50.802Z,54.48
2022-07-25T01:02:51.741Z,54.48
2022-07-25T01:03:51.005Z,54.28
2022-07-25T01:04:51.651Z,55.08
2022-07-25T01:05:53.661Z,54.38
2022-07-25T01:06:52.496Z,54.78
2022-07-25T01:07:52.634Z,54.48
2022-07-25T01:08:51.884Z,54.58
2022-07-25T01:09:52.060Z,54.80
2022-07-25T01:10:52.218Z,54.68
2022-07-25T01:11:53.142Z,54.97
2022-07-25T01:12:52.499Z,54.78
2022-07-25T01:13:52.640Z,54.71
2022-07-25T01:14:52.809Z,54.48
2022-07-25T01:15:53.693Z,54.78
2022-07-25T01:16:53.119Z,54.38
2022-07-25T01:17:53.663Z,54.78
2022-07-25T01:18:54.144Z,54.58
2022-07-25T01:19:53.661Z,54.71
2022-07-25T01:20:54.670Z,54.80
2022-07-25T01:21:54.539Z,54.50
2022-07-25T01:22:54.198Z,54.58
2022-07-25T01:23:54.368Z,54.58
2022-07-25T01:24:54.519Z,54.48
2022-07-25T01:25:55.644Z,54.48
2022-07-25T01:26:55.649Z,54.50
2022-07-25T01:27:56.158Z,54.78
2022-07-25T01:28:56.161Z,54.68
2022-07-25T01:29:55.290Z,54.68
2022-07-25T01:30:55.557Z,54.68
2022-07-25T01:31:56.668Z,54.78
2022-07-25T01:32:56.147Z,54.68
2022-07-25T01:33:57.041Z,54.88
2022-07-25T01:34:56.299Z,54.68
2022-07-25T01:35:56.445Z,54.78
2022-07-25T01:36:56.624Z,55.20
2022-07-25T01:37:56.777Z,55.57
2022-07-25T01:38:57.662Z,55.20
2022-07-25T01:39:57.169Z,55.18
2022-07-25T01:40:58.150Z,55.50
2022-07-25T01:41:57.565Z,55.80
2022-07-25T01:42:57.703Z,55.40
2022-07-25T01:43:58.653Z,55.50
2022-07-25T01:44:58.647Z,55.40
2022-07-25T01:45:58.226Z,55.40
2022-07-25T01:46:58.664Z,55.30
2022-07-25T01:47:59.156Z,55.50
2022-07-25T01:48:58.582Z,55.40
2022-07-25T01:49:58.754Z,55.90
2022-07-25T01:50:58.907Z,55.50
2022-07-25T01:51:59.175Z,55.40
2022-07-25T01:52:59.207Z,55.90
2022-07-25T01:53:59.413Z,55.40
2022-07-25T01:54:59.573Z,55.80
2022-07-25T01:56:00.658Z,55.90
2022-07-25T01:56:59.965Z,56.40
2022-07-25T01:58:00.121Z,56.10
2022-07-25T01:59:01.152Z,55.80
2022-07-25T02:00:00.389Z,56.12
2022-07-25T02:01:01.180Z,56.02
2022-07-25T02:02:01.224Z,56.32
2022-07-25T02:03:00.911Z,56.32
2022-07-25T02:04:01.145Z,56.32
2022-07-25T02:05:01.259Z,56.12
2022-07-25T02:06:01.341Z,56.42
2022-07-25T02:07:01.510Z,56.82
2022-07-25T02:08:01.703Z,56.32
2022-07-25T02:09:02.169Z,56.32
2022-07-25T02:10:02.051Z,56.42
2022-07-25T02:11:02.194Z,56.55
2022-07-25T02:12:02.350Z,56.52
2022-07-25T02:13:03.158Z,56.75
2022-07-25T02:14:03.396Z,56.72
2022-07-25T02:15:02.853Z,56.65
2022-07-25T02:16:02.990Z,56.55
2022-07-25T02:17:03.155Z,56.65
2022-07-25T02:18:03.318Z,56.45
2022-07-25T02:19:03.676Z,57.54
2022-07-25T02:20:03.701Z,56.95
2022-07-25T02:21:03.873Z,57.24
2022-07-25T02:22:04.663Z,56.95
2022-07-25T02:23:04.242Z,56.75
2022-07-25T02:24:04.786Z,57.24
2022-07-25T02:25:04.726Z,57.54
2022-07-25T02:26:04.760Z,57.54
2022-07-25T02:27:05.665Z,57.45
2022-07-25T02:28:05.672Z,57.54
2022-07-25T02:29:05.201Z,56.75
2022-07-25T02:30:06.170Z,56.85
2022-07-25T02:31:06.239Z,57.15
2022-07-25T02:32:05.769Z,57.45
2022-07-25T02:33:06.691Z,57.75
2022-07-25T02:34:06.271Z,57.54
2022-07-25T02:35:13.019Z,57.05
2022-07-25T02:36:07.400Z,57.64
2022-07-25T02:37:06.656Z,57.45
2022-07-25T02:38:06.836Z,57.64
2022-07-25T02:39:07.000Z,56.85
2022-07-25T02:40:07.687Z,56.85
2022-07-25T02:41:07.326Z,56.75
2022-07-25T02:42:07.492Z,56.65
2022-07-25T02:43:07.701Z,57.05
2022-07-25T02:44:08.280Z,57.75
2022-07-25T02:45:08.027Z,57.64
2022-07-25T02:46:08.311Z,56.95
2022-07-25T02:47:08.444Z,57.05
2022-07-25T02:48:09.177Z,57.54
2022-07-25T02:49:08.933Z,56.85
2022-07-25T02:50:09.019Z,57.17
2022-07-25T02:51:10.259Z,57.35
2022-07-25T02:52:09.396Z,57.35
2022-07-25T02:53:10.176Z,56.95
2022-07-25T02:54:10.615Z,57.15
2022-07-25T02:55:10.100Z,57.15
2022-07-25T02:56:10.036Z,57.05
2022-07-25T02:57:11.187Z,57.35
2022-07-25T02:58:10.448Z,56.65
2022-07-25T02:59:10.629Z,57.54
2022-07-25T03:00:11.675Z,57.05
2022-07-25T03:01:11.011Z,57.15
2022-07-25T03:02:11.120Z,57.15
2022-07-25T03:03:12.177Z,57.05
2022-07-25T03:04:11.756Z,56.65
2022-07-25T03:05:11.592Z,56.98
2022-07-25T03:06:12.691Z,56.75
2022-07-25T03:07:11.955Z,56.75
2022-07-25T03:08:12.684Z,56.87
2022-07-25T03:09:12.312Z,56.65
2022-07-25T03:10:13.525Z,57.05
2022-07-25T03:11:13.672Z,57.54
2022-07-25T03:12:12.802Z,56.85
2022-07-25T03:13:12.946Z,57.45
2022-07-25T03:14:13.091Z,57.35
2022-07-25T03:15:14.202Z,57.54
2022-07-25T03:16:13.752Z,57.24
2022-07-25T03:17:13.600Z,57.35
2022-07-25T03:18:13.753Z,56.95
2022-07-25T03:19:13.909Z,56.65
2022-07-25T03:20:14.053Z,56.75
2022-07-25T03:21:14.209Z,56.55
2022-07-25T03:22:14.706Z,56.45
2022-07-25T03:23:14.588Z,56.95
2022-07-25T03:24:15.688Z,56.95
2022-07-25T03:25:15.423Z,57.05
2022-07-25T03:26:16.688Z,56.65
2022-07-25T03:27:15.700Z,56.57
2022-07-25T03:28:15.438Z,57.45
2022-07-25T03:29:15.557Z,57.54
2022-07-25T03:30:15.704Z,56.55
2022-07-25T03:31:16.736Z,56.55
2022-07-25T03:32:16.081Z,56.65
2022-07-25T03:33:16.693Z,56.55
2022-07-25T03:34:16.389Z,56.45
2022-07-25T03:35:16.712Z,56.55
2022-07-25T03:36:16.731Z,56.65
2022-07-25T03:37:16.858Z,56.62
2022-07-25T03:38:16.986Z,56.65
2022-07-25T03:39:17.211Z,56.75
2022-07-25T03:40:17.369Z,56.65
2022-07-25T03:41:17.518Z,56.25
2022-07-25T03:42:17.707Z,56.72
2022-07-25T03:43:17.857Z,56.42
2022-07-25T03:44:18.039Z,56.42
2022-07-25T03:45:18.206Z,56.52
2022-07-25T03:46:18.410Z,56.52
2022-07-25T03:47:20.469Z,56.42
2022-07-25T03:48:18.619Z,56.45
2022-07-25T03:49:19.217Z,56.25
2022-07-25T03:50:19.025Z,56.55
2022-07-25T03:51:20.227Z,56.72
2022-07-25T03:52:19.357Z,55.93
2022-07-25T03:53:19.533Z,56.32
2022-07-25T03:54:19.716Z,55.93
2022-07-25T03:55:19.905Z,55.93
2022-07-25T03:56:20.061Z,56.23
2022-07-25T03:57:20.235Z,56.23
2022-07-25T03:58:20.428Z,56.12
2022-07-25T03:59:21.203Z,56.00
2022-07-25T04:00:20.732Z,56.02
2022-07-25T04:01:20.960Z,56.23
2022-07-25T04:02:21.808Z,56.02
2022-07-25T04:03:21.713Z,55.93
2022-07-25T04:04:22.210Z,56.40
2022-07-25T04:05:22.205Z,56.00
2022-07-25T04:06:21.600Z,56.00
2022-07-25T04:07:21.776Z,55.80
2022-07-25T04:08:21.965Z,56.30
2022-07-25T04:09:22.231Z,56.00
2022-07-25T04:10:22.259Z,55.70
2022-07-25T04:11:22.715Z,55.80
2022-07-25T04:12:23.207Z,55.50
2022-07-25T04:13:22.863Z,55.50
2022-07-25T04:14:23.020Z,55.70
2022-07-25T04:15:23.221Z,55.60
2022-07-25T04:16:23.486Z,56.30
2022-07-25T04:17:23.783Z,55.82
2022-07-25T04:18:24.675Z,55.90
2022-07-25T04:19:25.376Z,55.90
2022-07-25T04:20:24.035Z,56.20
2022-07-25T04:21:24.157Z,55.80
2022-07-25T04:22:25.212Z,56.00
2022-07-25T04:23:25.209Z,55.90
2022-07-25T04:24:24.723Z,55.90
2022-07-25T04:25:24.769Z,56.00
2022-07-25T04:26:24.947Z,56.00
2022-07-25T04:27:25.708Z,56.00
2022-07-25T04:28:26.215Z,55.90
2022-07-25T04:29:26.211Z,55.90
2022-07-25T04:30:26.221Z,56.30
2022-07-25T04:31:25.890Z,56.20
2022-07-25T04:32:26.086Z,56.20
2022-07-25T04:33:26.289Z,56.30
2022-07-25T04:34:26.441Z,55.97
2022-07-25T04:35:26.605Z,55.90
2022-07-25T04:36:26.755Z,56.00
2022-07-25T04:37:26.918Z,56.40
2022-07-25T04:38:27.081Z,55.90
2022-07-25T04:39:27.253Z,55.80
2022-07-25T04:40:28.220Z,55.38
2022-07-25T04:41:28.217Z,56.10
2022-07-25T04:42:28.215Z,55.40
2022-07-25T04:43:29.002Z,55.38
2022-07-25T04:44:28.155Z,55.47
2022-07-25T04:45:29.275Z,55.38
2022-07-25T04:46:28.533Z,55.27
2022-07-25T04:47:28.733Z,55.38
2022-07-25T04:48:28.968Z,55.57
2022-07-25T04:49:29.160Z,55.47
2022-07-25T04:50:29.729Z,55.47
2022-07-25T04:51:29.579Z,55.47
2022-07-25T04:52:29.779Z,55.27
2022-07-25T04:53:29.955Z,55.35
2022-07-25T04:54:30.137Z,55.15
2022-07-25T04:55:30.731Z,55.38
2022-07-25T04:56:30.562Z,55.38
2022-07-25T04:57:30.692Z,55.25
2022-07-25T04:58:31.837Z,55.44
2022-07-25T04:59:31.084Z,54.85
2022-07-25T05:00:31.286Z,54.55
2022-07-25T05:01:31.614Z,54.75
2022-07-25T05:02:31.652Z,54.85
2022-07-25T05:03:31.742Z,54.65
2022-07-25T05:04:31.890Z,54.75
2022-07-25T05:05:32.058Z,55.25
2022-07-25T05:06:32.243Z,55.15
2022-07-25T05:07:32.429Z,54.93
2022-07-25T05:08:32.564Z,54.72
2022-07-25T05:09:33.261Z,55.12
2022-07-25T05:10:33.731Z,55.05
2022-07-25T05:11:33.122Z,54.93
2022-07-25T05:12:33.742Z,54.63
2022-07-25T05:13:34.229Z,54.72
2022-07-25T05:14:33.738Z,54.63
2022-07-25T05:15:33.756Z,54.43
2022-07-25T05:16:34.812Z,54.72
2022-07-25T05:17:34.168Z,54.63
2022-07-25T05:18:34.351Z,54.33
2022-07-25T05:19:34.562Z,54.30
2022-07-25T05:20:34.738Z,54.43
2022-07-25T05:21:34.896Z,54.30
2022-07-25T05:22:35.046Z,54.40
2022-07-25T05:23:35.730Z,55.00
2022-07-25T05:24:35.373Z,54.60
2022-07-25T05:25:35.516Z,54.50
2022-07-25T05:26:35.645Z,54.21
2022-07-25T05:27:35.775Z,54.40
2022-07-25T05:28:35.951Z,54.08
2022-07-25T05:29:36.082Z,54.47
2022-07-25T05:30:39.734Z,54.87
2022-07-25T05:31:37.469Z,54.17
2022-07-25T05:32:36.665Z,54.28
2022-07-25T05:33:36.812Z,53.98
2022-07-25T05:34:37.308Z,53.88
2022-07-25T05:35:37.078Z,53.98
2022-07-25T05:36:37.735Z,54.47
2022-07-25T05:37:38.239Z,54.68
2022-07-25T05:38:37.582Z,54.28
2022-07-25T05:39:38.246Z,54.77
2022-07-25T05:40:37.904Z,54.25
2022-07-25T05:41:38.738Z,54.57
2022-07-25T05:42:38.737Z,54.05
2022-07-25T05:43:38.467Z,54.55
2022-07-25T05:44:38.597Z,54.35
2022-07-25T05:45:38.749Z,54.85
2022-07-25T05:46:38.921Z,54.35
2022-07-25T05:47:39.102Z,54.35
2022-07-25T05:48:39.291Z,54.13
2022-07-25T05:49:40.254Z,54.02
2022-07-25T05:50:39.647Z,54.22
2022-07-25T05:51:39.794Z,54.32
2022-07-25T05:52:40.747Z,54.32
2022-07-25T05:53:40.125Z,54.13
2022-07-25T05:54:40.249Z,54.52
2022-07-25T05:55:41.050Z,54.22
2022-07-25T05:56:40.555Z,54.39
2022-07-25T05:57:40.684Z,54.20
2022-07-25T05:58:40.836Z,54.69
2022-07-25T05:59:40.990Z,54.20
2022-07-25T06:00:41.263Z,54.39
2022-07-25T06:01:42.276Z,54.39
2022-07-25T06:02:41.512Z,54.30
2022-07-25T06:03:41.583Z,54.79
2022-07-25T06:04:41.718Z,54.49
2022-07-25T06:05:42.265Z,54.79
2022-07-25T06:06:42.132Z,54.30
2022-07-25T06:07:42.305Z,54.49
2022-07-25T06:08:43.457Z,54.77
2022-07-25T06:09:42.574Z,54.30
2022-07-25T06:10:42.736Z,54.37
2022-07-25T06:11:54.365Z,54.49
2022-07-25T06:12:44.012Z,55.16
2022-07-25T06:13:43.133Z,54.86
2022-07-25T06:14:44.265Z,54.96
2022-07-25T06:15:43.505Z,55.09
2022-07-25T06:16:43.715Z,55.78
2022-07-25T06:17:43.788Z,55.58
2022-07-25T06:18:44.967Z,55.58
2022-07-25T06:19:44.757Z,54.99
2022-07-25T06:20:44.252Z,55.78
2022-07-25T06:21:44.403Z,55.58
2022-07-25T06:22:45.254Z,55.26
2022-07-25T06:23:45.276Z,55.78
2022-07-25T06:24:45.755Z,54.96
2022-07-25T06:25:50.356Z,55.46
2022-07-25T06:26:46.277Z,55.06
2022-07-25T06:27:46.268Z,55.66
2022-07-25T06:28:46.280Z,54.86
2022-07-25T06:29:46.756Z,54.96
2022-07-25T06:30:46.753Z,55.85
2022-07-25T06:31:46.418Z,55.36
2022-07-25T06:32:47.275Z,55.46
2022-07-25T06:33:46.544Z,55.66
2022-07-25T06:34:46.705Z,55.16
2022-07-25T06:35:47.765Z,55.76
2022-07-25T06:36:46.984Z,55.76
2022-07-25T06:37:47.145Z,56.35
2022-07-25T06:38:48.261Z,55.76
2022-07-25T06:39:47.571Z,56.05
2022-07-25T06:40:47.724Z,56.25
2022-07-25T06:41:48.767Z,56.05
2022-07-25T06:42:48.008Z,56.25
2022-07-25T06:43:48.761Z,55.66
2022-07-25T06:44:49.355Z,56.55
2022-07-25T06:45:49.261Z,56.25
2022-07-25T06:46:48.689Z,56.25
2022-07-25T06:47:49.772Z,56.15
2022-07-25T06:48:48.928Z,56.05
2022-07-25T06:49:49.119Z,55.93
2022-07-25T06:50:49.275Z,56.13
2022-07-25T06:51:50.268Z,56.23
2022-07-25T06:52:50.273Z,56.42
2022-07-25T06:53:49.771Z,55.63
2022-07-25T06:54:49.897Z,55.70
2022-07-25T06:55:50.279Z,55.80
2022-07-25T06:56:50.801Z,55.70
2022-07-25T06:57:51.265Z,54.91
2022-07-25T06:58:50.642Z,54.79
2022-07-25T06:59:51.770Z,54.79
2022-07-25T07:00:51.085Z,54.29
2022-07-25T07:01:51.878Z,54.79
2022-07-25T07:02:53.577Z,55.18
2022-07-25T07:03:51.603Z,54.29
2022-07-25T07:04:51.704Z,54.49
2022-07-25T07:05:51.865Z,54.88
2022-07-25T07:06:52.310Z,55.55
2022-07-25T07:07:52.220Z,55.28
2022-07-25T07:08:52.398Z,55.05
2022-07-25T07:09:53.272Z,54.27
2022-07-25T07:10:53.274Z,55.26
2022-07-25T07:11:52.939Z,54.86
2022-07-25T07:12:53.061Z,55.65
2022-07-25T07:13:53.224Z,54.36
2022-07-25T07:14:53.386Z,53.87
2022-07-25T07:15:53.553Z,53.97
2022-07-25T07:16:53.791Z,53.99
2022-07-25T07:17:53.940Z,54.27
2022-07-25T07:18:54.111Z,54.36
2022-07-25T07:19:54.778Z,53.97
2022-07-25T07:20:54.411Z,53.77
2022-07-25T07:21:54.575Z,54.76
2022-07-25T07:22:54.803Z,54.27
2022-07-25T07:23:55.777Z,54.56
2022-07-25T07:24:55.206Z,54.29
2022-07-25T07:25:55.433Z,54.36
2022-07-25T07:26:55.625Z,54.27
2022-07-25T07:27:55.740Z,54.17
2022-07-25T07:28:56.783Z,53.67
2022-07-25T07:29:56.042Z,53.89
2022-07-25T07:31:15.585Z,53.99
2022-07-25T07:31:58.522Z,54.79
2022-07-25T07:32:56.599Z,53.67
2022-07-25T07:33:56.744Z,54.10
2022-07-25T07:34:56.929Z,53.80
2022-07-25T07:35:57.219Z,54.39
2022-07-25T07:36:58.348Z,53.89
2022-07-25T07:37:57.455Z,54.39
2022-07-25T07:38:58.281Z,53.97
2022-07-25T07:39:57.897Z,54.10
2022-07-25T07:40:58.133Z,54.59
2022-07-25T07:41:58.369Z,55.35
2022-07-25T07:42:58.796Z,55.08
2022-07-25T07:43:58.649Z,54.36
2022-07-25T07:44:58.899Z,53.38
2022-07-25T07:45:59.853Z,53.80
2022-07-25T07:46:59.858Z,54.10
2022-07-25T07:47:59.508Z,54.06
2022-07-25T07:48:59.709Z,54.27
2022-07-25T07:50:00.294Z,53.18
2022-07-25T07:50:59.928Z,54.17
2022-07-25T07:52:00.036Z,53.97
2022-07-25T07:53:00.791Z,54.17
2022-07-25T07:54:00.396Z,53.75
2022-07-25T07:55:00.524Z,54.27
2022-07-25T07:56:01.310Z,54.27
2022-07-25T07:57:01.798Z,54.17
2022-07-25T07:58:01.026Z,54.17
2022-07-25T07:59:01.159Z,54.17
2022-07-25T08:00:02.284Z,54.17
2022-07-25T08:01:01.433Z,54.06
2022-07-25T08:02:01.640Z,53.94
2022-07-25T08:03:01.825Z,53.77
2022-07-25T08:04:02.326Z,54.46
2022-07-25T08:05:02.793Z,54.27
2022-07-25T08:06:02.795Z,53.57
2022-07-25T08:07:03.304Z,53.38
2022-07-25T08:08:02.678Z,54.56
2022-07-25T08:09:03.723Z,54.17
2022-07-25T08:10:02.990Z,54.06
2022-07-25T08:11:03.146Z,54.17
2022-07-25T08:12:03.878Z,53.85
2022-07-25T08:13:03.501Z,54.34
2022-07-25T08:14:04.797Z,54.34
2022-07-25T08:15:04.824Z,53.85
2022-07-25T08:16:04.204Z,53.94
2022-07-25T08:17:04.202Z,54.24
2022-07-25T08:18:04.824Z,53.55
2022-07-25T08:19:05.550Z,54.24
2022-07-25T08:20:27.573Z,54.14
2022-07-25T08:21:07.805Z,54.14
2022-07-25T08:22:05.821Z,54.04
2022-07-25T08:23:06.302Z,54.14
2022-07-25T08:24:06.961Z,54.61
2022-07-25T08:25:06.326Z,54.21
2022-07-25T08:26:06.088Z,53.92
2022-07-25T08:27:06.804Z,54.02
2022-07-25T08:28:07.308Z,54.41
2022-07-25T08:29:18.784Z,54.02
2022-07-25T08:30:08.705Z,54.02
2022-07-25T08:31:06.980Z,54.41
2022-07-25T08:32:07.813Z,55.40
2022-07-25T08:33:07.310Z,54.31
2022-07-25T08:34:07.837Z,54.51
2022-07-25T08:35:11.366Z,54.21
2022-07-25T08:36:08.836Z,54.48
2022-07-25T08:37:07.970Z,53.99
2022-07-25T08:38:08.815Z,54.19
2022-07-25T08:39:08.309Z,53.79
2022-07-25T08:40:08.442Z,54.09
2022-07-25T08:41:08.671Z,53.99
2022-07-25T08:42:11.190Z,53.86
2022-07-25T08:43:09.931Z,54.06
2022-07-25T08:44:09.895Z,54.06
2022-07-25T08:45:10.313Z,54.36
2022-07-25T08:46:09.620Z,53.67
2022-07-25T08:47:09.792Z,54.16
2022-07-25T08:48:09.864Z,53.86
2022-07-25T08:49:10.139Z,54.06
2022-07-25T08:50:10.219Z,53.57
2022-07-25T08:51:10.366Z,53.27
2022-07-25T08:52:10.526Z,54.23
2022-07-25T08:53:32.048Z,53.81
2022-07-25T08:54:12.891Z,53.42
2022-07-25T08:55:11.086Z,52.73
2022-07-25T08:56:16.046Z,53.52
2022-07-25T08:57:13.493Z,53.39
2022-07-25T08:58:12.326Z,53.42
2022-07-25T08:59:11.733Z,52.92
2022-07-25T09:00:12.816Z,52.73
2022-07-25T09:01:13.072Z,53.42
2022-07-25T09:02:12.234Z,53.52
2022-07-25T09:03:12.464Z,53.09
2022-07-25T09:04:12.833Z,52.80
2022-07-25T09:05:12.847Z,52.90
2022-07-25T09:06:13.018Z,52.87
2022-07-25T09:07:13.825Z,53.09
2022-07-25T09:08:13.334Z,52.78
2022-07-25T09:09:13.536Z,52.21
2022-07-25T09:10:13.691Z,52.80
2022-07-25T09:11:13.906Z,52.11
2022-07-25T09:12:14.855Z,52.90
2022-07-25T09:13:14.841Z,53.86
2022-07-25T09:14:15.017Z,53.47
2022-07-25T09:15:14.492Z,52.78
2022-07-25T09:16:15.380Z,52.87
2022-07-25T09:17:22.235Z,52.80
2022-07-25T09:18:16.986Z,53.30
2022-07-25T09:19:15.340Z,53.19
2022-07-25T09:20:18.468Z,52.90
2022-07-25T09:21:17.327Z,53.49
2022-07-25T09:22:16.329Z,52.90
2022-07-25T09:23:16.850Z,52.90
2022-07-25T09:24:16.391Z,52.70
2022-07-25T09:25:16.288Z,53.88
2022-07-25T09:26:16.561Z,53.09
2022-07-25T09:27:16.728Z,53.32
2022-07-25T09:28:17.826Z,53.00
2022-07-25T09:29:17.831Z,53.39
2022-07-25T09:30:17.850Z,54.47
2022-07-25T09:31:17.468Z,53.69
2022-07-25T09:32:18.315Z,52.80
2022-07-25T09:33:18.714Z,53.42
2022-07-25T09:34:21.847Z,53.88
2022-07-25T09:35:19.830Z,53.49
2022-07-25T09:36:19.164Z,53.09
2022-07-25T09:37:18.585Z,52.90
2022-07-25T09:38:18.762Z,52.90
2022-07-25T09:39:19.841Z,52.61
2022-07-25T09:40:19.143Z,52.90
2022-07-25T09:41:19.339Z,53.17
2022-07-25T09:42:19.858Z,52.78
2022-07-25T09:43:19.671Z,53.76
2022-07-25T09:44:19.839Z,51.86
2022-07-25T09:45:19.979Z,53.14
2022-07-25T09:46:20.172Z,52.06
2022-07-25T09:47:20.340Z,53.22
2022-07-25T09:48:20.517Z,53.02
2022-07-25T09:49:20.680Z,51.84
2022-07-25T09:50:20.833Z,52.62
2022-07-25T09:51:20.982Z,52.33
2022-07-25T09:52:21.152Z,52.62
2022-07-25T09:53:21.336Z,51.84
2022-07-25T09:54:21.498Z,52.62
2022-07-25T09:55:21.642Z,52.06
2022-07-25T09:56:21.774Z,52.45
2022-07-25T09:57:22.841Z,52.36
2022-07-25T09:58:22.051Z,53.14
2022-07-25T09:59:22.305Z,52.87
2022-07-25T10:00:22.433Z,52.19
2022-07-25T10:01:22.658Z,52.97
2022-07-25T10:02:22.794Z,52.85
2022-07-25T10:03:22.961Z,52.85
2022-07-25T10:04:23.123Z,52.85
2022-07-25T10:05:23.301Z,52.72
2022-07-25T10:06:23.445Z,52.82
2022-07-25T10:07:25.946Z,51.91
2022-07-25T10:08:24.835Z,52.21
2022-07-25T10:09:23.989Z,51.40
2022-07-25T10:10:24.846Z,51.89
2022-07-25T10:11:24.340Z,51.17
2022-07-25T10:12:25.354Z,51.59
2022-07-25T10:13:25.352Z,51.42
2022-07-25T10:14:24.857Z,51.03
2022-07-25T10:15:24.988Z,52.21
2022-07-25T10:16:25.887Z,51.54
2022-07-25T10:17:25.851Z,51.54
2022-07-25T10:18:25.470Z,51.05
2022-07-25T10:19:25.858Z,52.31
2022-07-25T10:20:25.864Z,52.01
2022-07-25T10:21:27.629Z,50.81
2022-07-25T10:22:53.761Z,50.21
2022-07-25T10:23:29.356Z,50.71
2022-07-25T10:24:26.690Z,51.47
2022-07-25T10:25:26.849Z,51.47
2022-07-25T10:26:27.011Z,50.88
2022-07-25T10:27:27.198Z,50.85
2022-07-25T10:28:27.388Z,49.31
2022-07-25T10:29:27.541Z,50.49
2022-07-25T10:30:27.985Z,51.17
2022-07-25T10:31:28.472Z,51.20
2022-07-25T10:32:28.129Z,51.98
2022-07-25T10:33:28.256Z,50.90
2022-07-25T10:34:29.357Z,50.81
2022-07-25T10:35:28.612Z,50.90
2022-07-25T10:36:28.797Z,51.00
2022-07-25T10:37:29.370Z,51.03
2022-07-25T10:38:29.862Z,50.76
2022-07-25T10:39:29.357Z,51.54
2022-07-25T10:40:29.871Z,51.54
2022-07-25T10:41:29.625Z,51.74
2022-07-25T10:42:30.371Z,52.03
2022-07-25T10:43:29.899Z,52.03
2022-07-25T10:44:30.038Z,52.14
2022-07-25T10:45:30.374Z,51.74
2022-07-25T10:46:31.393Z,52.55
2022-07-25T10:47:30.892Z,52.36
2022-07-25T10:48:30.839Z,52.38
2022-07-25T10:49:32.480Z,52.09
2022-07-25T10:50:54.358Z,53.07
2022-07-25T10:51:35.928Z,53.09
2022-07-25T10:52:32.439Z,53.39
2022-07-25T10:53:31.558Z,53.78
2022-07-25T10:54:31.677Z,53.99
2022-07-25T10:55:32.863Z,53.91
2022-07-25T10:56:32.885Z,53.81
2022-07-25T10:57:32.457Z,54.01
2022-07-25T10:58:32.371Z,54.13
2022-07-25T10:59:32.509Z,54.11
2022-07-25T11:00:32.673Z,54.03
2022-07-25T11:01:32.873Z,54.03
2022-07-25T11:02:33.120Z,54.72
2022-07-25T11:03:33.180Z,55.05
2022-07-25T11:04:33.353Z,54.72
2022-07-25T11:05:34.372Z,54.75
2022-07-25T11:06:33.739Z,54.75
2022-07-25T11:07:34.373Z,55.54
2022-07-25T11:08:33.998Z,55.54
2022-07-25T11:09:34.874Z,55.64
2022-07-25T11:10:34.349Z,55.44
2022-07-25T11:11:34.496Z,55.37
2022-07-25T11:12:34.645Z,55.57
2022-07-25T11:13:34.788Z,55.47
2022-07-25T11:14:35.885Z,55.77
2022-07-25T11:15:35.121Z,55.96
2022-07-25T11:16:35.463Z,56.75
2022-07-25T11:17:35.419Z,56.36
2022-07-25T11:18:35.584Z,55.87
2022-07-25T11:19:35.892Z,55.96
2022-07-25T11:20:35.923Z,56.38
2022-07-25T11:21:36.130Z,56.09
2022-07-25T11:22:36.291Z,57.54
2022-07-25T11:23:36.485Z,56.26
2022-07-25T11:24:36.668Z,56.46
2022-07-25T11:25:36.891Z,56.36
2022-07-25T11:26:38.035Z,56.26
2022-07-25T11:27:37.172Z,56.26
2022-07-25T11:28:37.301Z,56.06
2022-07-25T11:29:37.468Z,56.33
2022-07-25T11:30:37.640Z,56.23
2022-07-25T11:31:37.912Z,56.01
2022-07-25T11:32:38.007Z,55.98
2022-07-25T11:33:39.128Z,55.39
2022-07-25T11:34:38.309Z,53.78
2022-07-25T11:35:38.472Z,54.08
2022-07-25T11:36:38.632Z,53.88
2022-07-25T11:37:39.399Z,54.21
2022-07-25T11:38:39.886Z,54.50
2022-07-25T11:39:39.272Z,54.11
2022-07-25T11:40:39.893Z,53.71
2022-07-25T11:41:40.396Z,53.22
2022-07-25T11:42:39.902Z,53.91
2022-07-25T11:43:40.892Z,54.01
2022-07-25T11:44:42.983Z,53.42
2022-07-25T11:45:42.460Z,53.64
2022-07-25T11:46:40.906Z,54.13
2022-07-25T11:47:41.406Z,54.23
2022-07-25T11:48:42.032Z,54.30
2022-07-25T11:49:41.063Z,54.21
2022-07-25T11:50:41.286Z,53.99
2022-07-25T11:51:41.479Z,53.39
2022-07-25T11:52:41.698Z,53.07
2022-07-25T11:53:41.880Z,53.27
2022-07-25T11:54:42.052Z,52.68
2022-07-25T11:55:42.208Z,52.87
2022-07-25T11:56:43.790Z,53.47
2022-07-25T11:57:43.520Z,53.19
2022-07-25T11:58:42.913Z,52.90
2022-07-25T11:59:43.400Z,53.39
2022-07-25T12:00:42.937Z,53.59
2022-07-25T12:01:43.896Z,53.78
2022-07-25T12:02:43.997Z,53.39
2022-07-25T12:03:43.541Z,54.28
2022-07-25T12:04:44.400Z,54.45
2022-07-25T12:05:44.434Z,54.43
2022-07-25T12:06:44.116Z,54.10
2022-07-25T12:07:44.237Z,53.09
2022-07-25T12:08:44.411Z,53.56
2022-07-25T12:09:45.551Z,51.76
2022-07-25T12:10:45.403Z,52.94
2022-07-25T12:11:44.870Z,51.93
2022-07-25T12:12:45.138Z,50.95
2022-07-25T12:13:45.289Z,50.85
2022-07-25T12:14:46.397Z,50.76
2022-07-25T12:15:45.628Z,50.95
2022-07-25T12:16:45.874Z,51.93
2022-07-25T12:17:45.937Z,51.17
2022-07-25T12:18:46.437Z,52.25
2022-07-25T12:19:46.937Z,52.25
2022-07-25T12:20:46.398Z,52.28
2022-07-25T12:21:46.619Z,51.96
2022-07-25T12:22:46.755Z,52.06
2022-07-25T12:23:46.911Z,52.84
2022-07-25T12:24:47.040Z,52.84
2022-07-25T12:25:47.197Z,52.65
2022-07-25T12:26:47.318Z,52.08
2022-07-25T12:27:49.419Z,52.48
2022-07-25T12:28:48.407Z,52.70
2022-07-25T12:29:48.401Z,52.72
2022-07-25T12:30:50.561Z,52.85
2022-07-25T12:31:49.147Z,53.64
2022-07-25T12:32:48.294Z,53.93
2022-07-25T12:33:49.405Z,54.79
2022-07-25T12:34:48.645Z,53.70
2022-07-25T12:35:48.781Z,54.79
2022-07-25T12:36:48.934Z,55.31
2022-07-25T12:37:49.429Z,55.41
2022-07-25T12:38:49.294Z,55.70
2022-07-25T12:39:49.461Z,56.10
2022-07-25T12:40:49.672Z,56.74
2022-07-25T12:41:49.819Z,57.06
2022-07-25T12:42:50.910Z,58.15
2022-07-25T12:43:50.911Z,57.95
2022-07-25T12:44:50.275Z,57.19
2022-07-25T12:45:50.428Z,57.95
2022-07-25T12:46:51.413Z,58.15
2022-07-25T12:47:50.771Z,57.36
2022-07-25T12:48:51.961Z,57.63
2022-07-25T12:49:51.118Z,57.26
2022-07-25T12:50:51.256Z,57.53
2022-07-25T12:51:56.075Z,58.12
2022-07-25T12:52:53.617Z,57.04
2022-07-25T12:53:51.828Z,57.17
2022-07-25T12:54:51.996Z,57.39